createdAt,value
2022-08-31T00:00:17.049Z,25.76
2022-08-31T00:03:02.632Z,25.77
2022-08-31T00:05:29.586Z,25.79
2022-08-31T00:07:56.739Z,25.81
2022-08-31T00:10:32.202Z,25.81
2022-08-31T00:13:04.665Z,25.82
2022-08-31T00:15:34.379Z,25.83
2022-08-31T00:18:01.323Z,25.81
2022-08-31T00:20:33.506Z,25.79
2022-08-31T00:23:06.586Z,25.77
2022-08-31T00:25:34.593Z,25.76
2022-08-31T00:28:02.328Z,25.75
2022-08-31T00:30:29.887Z,25.71
2022-08-31T00:32:57.113Z,25.68
2022-08-31T00:35:30.233Z,25.65
2022-08-31T00:37:57.903Z,25.62
2022-08-31T00:40:25.431Z,25.59
2022-08-31T00:42:52.511Z,25.56
2022-08-31T00:45:19.460Z,25.52
2022-08-31T00:47:46.816Z,25.53
2022-08-31T00:50:15.824Z,25.51
2022-08-31T00:52:45.786Z,25.49
2022-08-31T00:55:16.224Z,25.47
2022-08-31T00:57:43.922Z,25.45
2022-08-31T01:00:13.955Z,25.44
2022-08-31T01:02:40.930Z,25.41
2022-08-31T01:05:08.764Z,25.37
2022-08-31T01:07:35.911Z,25.35
2022-08-31T01:10:03.280Z,25.34
2022-08-31T01:12:30.265Z,25.32
2022-08-31T01:14:57.306Z,25.30
2022-08-31T01:17:24.253Z,25.29
2022-08-31T01:20:21.378Z,25.28
2022-08-31T01:22:57.440Z,25.27
2022-08-31T01:25:24.393Z,25.25
2022-08-31T01:28:00.555Z,25.24
2022-08-31T01:30:27.509Z,25.24
2022-08-31T01:32:54.668Z,25.24
2022-08-31T01:35:21.709Z,25.24
2022-08-31T01:37:48.760Z,25.23
2022-08-31T01:40:16.382Z,25.23
2022-08-31T01:42:43.586Z,25.23
2022-08-31T01:45:10.999Z,25.22
2022-08-31T01:47:39.733Z,25.22
2022-08-31T01:50:07.533Z,25.22
2022-08-31T01:52:36.139Z,25.22
2022-08-31T01:55:05.443Z,25.21
2022-08-31T01:57:33.949Z,25.20
2022-08-31T02:00:06.579Z,25.20
2022-08-31T02:02:33.655Z,25.19
2022-08-31T02:05:00.752Z,25.18
2022-08-31T02:07:27.725Z,25.16
2022-08-31T02:09:55.668Z,25.15
2022-08-31T02:12:23.230Z,25.13
2022-08-31T02:14:50.182Z,25.10
2022-08-31T02:17:17.332Z,25.08
2022-08-31T02:19:44.181Z,25.04
2022-08-31T02:22:11.056Z,25.01
2022-08-31T02:24:38.486Z,24.99
2022-08-31T02:27:06.050Z,24.96
2022-08-31T02:29:33.510Z,24.94
2022-08-31T02:32:00.385Z,24.91
2022-08-31T02:34:28.324Z,24.89
2022-08-31T02:36:55.865Z,24.87
2022-08-31T02:39:24.376Z,24.85
2022-08-31T02:41:51.829Z,24.82
2022-08-31T02:44:18.978Z,24.79
2022-08-31T02:46:46.067Z,24.74
2022-08-31T02:49:13.796Z,24.72
2022-08-31T02:51:41.884Z,24.70
2022-08-31T02:54:08.924Z,24.68
2022-08-31T02:56:35.779Z,24.68
2022-08-31T02:59:02.823Z,24.69
2022-08-31T03:01:30.035Z,24.70
2022-08-31T03:03:57.241Z,24.69
2022-08-31T03:06:24.402Z,24.68
2022-08-31T03:08:51.449Z,24.68
2022-08-31T03:11:18.909Z,24.68
2022-08-31T03:13:46.162Z,24.68
2022-08-31T03:16:13.926Z,24.68
2022-08-31T03:18:40.995Z,24.67
2022-08-31T03:21:07.951Z,24.64
2022-08-31T03:23:34.895Z,24.60
2022-08-31T03:26:01.941Z,24.57
2022-08-31T03:28:28.884Z,24.57
2022-08-31T03:30:55.971Z,24.55
2022-08-31T03:33:22.902Z,24.54
2022-08-31T03:35:51.152Z,24.53
2022-08-31T03:38:17.928Z,24.54
2022-08-31T03:40:45.071Z,24.52
2022-08-31T03:43:12.978Z,24.52
2022-08-31T03:45:40.755Z,24.53
2022-08-31T03:48:12.179Z,24.53
2022-08-31T03:50:40.112Z,24.54
2022-08-31T03:53:07.670Z,24.55
2022-08-31T03:55:35.183Z,24.58
2022-08-31T03:58:02.279Z,24.59
2022-08-31T04:00:30.452Z,24.62
2022-08-31T04:03:00.046Z,24.65
2022-08-31T04:05:31.152Z,24.69
2022-08-31T04:07:58.185Z,24.72
2022-08-31T04:10:25.415Z,24.74
2022-08-31T04:12:52.359Z,24.77
2022-08-31T04:15:20.639Z,24.84
2022-08-31T04:17:48.308Z,24.90
2022-08-31T04:20:17.719Z,24.97
2022-08-31T04:22:45.797Z,25.04
2022-08-31T04:25:12.749Z,25.11
2022-08-31T04:27:45.229Z,25.18
2022-08-31T04:30:12.727Z,25.23
2022-08-31T04:32:39.749Z,25.28
2022-08-31T04:35:08.605Z,25.34
2022-08-31T04:37:35.693Z,25.38
2022-08-31T04:40:05.227Z,25.42
2022-08-31T04:42:32.363Z,25.46
2022-08-31T04:44:59.312Z,25.51
2022-08-31T04:47:26.364Z,25.58
2022-08-31T04:49:53.933Z,25.66
2022-08-31T04:52:24.667Z,25.69
2022-08-31T04:54:55.846Z,25.75
2022-08-31T04:57:22.774Z,25.79
2022-08-31T04:59:49.621Z,25.86
2022-08-31T05:02:16.807Z,25.95
2022-08-31T05:04:44.345Z,26.06
2022-08-31T05:07:11.704Z,26.17
2022-08-31T05:09:38.758Z,26.27
2022-08-31T05:12:05.806Z,26.38
2022-08-31T05:14:32.654Z,26.50
2022-08-31T05:17:01.758Z,26.59
2022-08-31T05:19:29.321Z,26.68
2022-08-31T05:21:56.686Z,26.72
2022-08-31T05:24:24.827Z,26.74
2022-08-31T05:26:53.865Z,26.77
2022-08-31T05:29:22.877Z,26.81
2022-08-31T05:31:52.423Z,26.89
2022-08-31T05:34:21.038Z,26.97
2022-08-31T05:36:51.296Z,27.04
2022-08-31T05:39:18.207Z,27.10
2022-08-31T05:41:45.951Z,27.16
2022-08-31T05:44:12.922Z,27.24
2022-08-31T05:46:40.005Z,27.29
2022-08-31T05:49:07.753Z,27.36
2022-08-31T05:51:38.624Z,27.46
2022-08-31T05:54:07.764Z,27.57
2022-08-31T05:56:35.940Z,27.68
2022-08-31T05:59:03.289Z,27.79
2022-08-31T06:01:32.134Z,27.90
2022-08-31T06:03:59.429Z,28.03
2022-08-31T06:06:26.711Z,28.18
2022-08-31T06:08:55.860Z,28.36
2022-08-31T06:11:26.599Z,28.52
2022-08-31T06:13:54.318Z,28.65
2022-08-31T06:16:21.664Z,28.82
2022-08-31T06:18:51.554Z,28.99
2022-08-31T06:21:23.311Z,29.15
2022-08-31T06:23:51.081Z,29.31
2022-08-31T06:26:20.236Z,29.47
2022-08-31T06:28:48.826Z,29.64
2022-08-31T06:31:27.986Z,29.82
2022-08-31T06:33:56.177Z,30.01
2022-08-31T06:36:25.899Z,30.18
2022-08-31T06:38:53.144Z,30.34
2022-08-31T06:41:22.651Z,30.53
2022-08-31T06:43:49.600Z,30.73
2022-08-31T06:46:17.902Z,30.87
2022-08-31T06:48:45.649Z,31.03
2022-08-31T06:51:13.725Z,31.24
2022-08-31T06:53:42.549Z,31.44
2022-08-31T06:56:20.127Z,31.56
2022-08-31T06:58:48.811Z,31.66
2022-08-31T07:01:35.032Z,31.79
2022-08-31T07:04:09.015Z,31.93
2022-08-31T07:06:41.391Z,32.12
2022-08-31T07:09:10.215Z,32.32
2022-08-31T07:11:44.355Z,32.50
2022-08-31T07:14:15.082Z,32.67
2022-08-31T07:16:43.058Z,32.84
2022-08-31T07:19:10.062Z,32.98
2022-08-31T07:21:42.441Z,33.11
2022-08-31T07:24:10.423Z,33.17
2022-08-31T07:26:48.951Z,33.27
2022-08-31T07:29:19.113Z,33.47
2022-08-31T07:31:47.555Z,33.64
2022-08-31T07:34:14.793Z,33.85
2022-08-31T07:37:01.101Z,34.06
2022-08-31T07:39:47.299Z,34.20
2022-08-31T07:42:16.022Z,34.32
2022-08-31T07:44:43.037Z,34.48
2022-08-31T07:47:22.032Z,34.57
2022-08-31T07:49:51.579Z,34.68
2022-08-31T07:52:31.734Z,34.84
2022-08-31T07:55:05.153Z,34.96
2022-08-31T07:57:38.165Z,35.04
2022-08-31T08:00:09.211Z,35.07
2022-08-31T08:02:40.429Z,35.14
2022-08-31T08:05:11.246Z,35.29
2022-08-31T08:07:39.726Z,35.50
2022-08-31T08:10:14.697Z,35.74
2022-08-31T08:12:42.945Z,35.95
2022-08-31T08:15:10.458Z,36.14
2022-08-31T08:17:38.273Z,36.38
2022-08-31T08:20:11.664Z,36.60
2022-08-31T08:22:54.237Z,36.81
2022-08-31T08:25:25.809Z,37.05
2022-08-31T08:27:54.803Z,37.31
2022-08-31T08:30:22.405Z,37.49
2022-08-31T08:32:49.874Z,37.62
2022-08-31T08:35:17.013Z,37.75
2022-08-31T08:38:07.010Z,37.87
2022-08-31T08:40:42.849Z,38.05
2022-08-31T08:43:16.307Z,38.15
2022-08-31T08:45:44.510Z,38.22
2022-08-31T08:48:13.884Z,38.23
2022-08-31T08:50:41.110Z,38.22
2022-08-31T08:53:12.690Z,38.32
2022-08-31T08:55:41.427Z,38.48
2022-08-31T08:58:13.551Z,38.69
2022-08-31T09:00:46.821Z,38.91
2022-08-31T09:03:31.149Z,39.03
2022-08-31T09:06:09.911Z,39.11
2022-08-31T09:08:43.952Z,39.21
2022-08-31T09:11:24.144Z,39.24
2022-08-31T09:14:30.312Z,39.31
2022-08-31T09:17:17.225Z,39.36
2022-08-31T09:20:03.842Z,39.57
2022-08-31T09:22:35.186Z,39.78
2022-08-31T09:25:06.253Z,39.87
2022-08-31T09:28:08.090Z,39.99
2022-08-31T09:30:52.600Z,40.16
2022-08-31T09:33:23.690Z,40.24
2022-08-31T09:35:58.558Z,40.20
2022-08-31T09:38:40.414Z,40.24
2022-08-31T09:41:23.443Z,40.37
2022-08-31T09:43:50.994Z,40.40
2022-08-31T09:46:29.848Z,40.47
2022-08-31T09:48:58.615Z,40.67
2022-08-31T09:51:28.365Z,40.83
2022-08-31T09:54:26.288Z,40.90
2022-08-31T09:56:58.764Z,40.98
2022-08-31T09:59:48.125Z,40.95
2022-08-31T10:02:23.218Z,40.96
2022-08-31T10:05:06.710Z,40.83
2022-08-31T10:07:44.199Z,40.67
2022-08-31T10:10:28.128Z,40.63
2022-08-31T10:13:04.535Z,40.68
2022-08-31T10:15:39.897Z,40.75
2022-08-31T10:18:26.348Z,40.88
2022-08-31T10:21:09.471Z,40.87
2022-08-31T10:24:08.977Z,40.88
2022-08-31T10:26:47.097Z,41.07
2022-08-31T10:29:23.361Z,41.07
2022-08-31T10:31:52.475Z,40.96
2022-08-31T10:34:41.450Z,40.92
2022-08-31T10:37:31.794Z,40.92
2022-08-31T10:40:00.753Z,41.01
2022-08-31T10:42:37.671Z,41.20
2022-08-31T10:45:18.446Z,41.39
2022-08-31T10:47:49.167Z,41.60
2022-08-31T10:50:30.899Z,41.60
2022-08-31T10:53:26.490Z,41.35
2022-08-31T10:56:18.417Z,41.28
2022-08-31T10:59:07.680Z,41.25
2022-08-31T11:01:48.959Z,41.24
2022-08-31T11:04:29.579Z,41.05
2022-08-31T11:07:00.673Z,40.96
2022-08-31T11:09:55.358Z,41.07
2022-08-31T11:12:33.474Z,41.00
2022-08-31T11:15:29.103Z,40.74
2022-08-31T11:18:25.615Z,40.59
2022-08-31T11:21:00.546Z,40.62
2022-08-31T11:23:42.369Z,40.81
2022-08-31T11:26:36.520Z,41.00
2022-08-31T11:29:29.576Z,41.05
2022-08-31T11:32:21.504Z,41.07
2022-08-31T11:34:51.628Z,41.12
2022-08-31T11:37:53.090Z,41.15
2022-08-31T11:40:44.203Z,41.22
2022-08-31T11:43:15.637Z,41.38
2022-08-31T11:45:43.167Z,41.42
2022-08-31T11:49:02.258Z,41.47
2022-08-31T11:51:41.742Z,41.43
2022-08-31T11:54:15.293Z,41.36
2022-08-31T11:56:45.536Z,41.19
2022-08-31T11:59:39.086Z,41.05
2022-08-31T12:02:24.542Z,41.02
2022-08-31T12:05:03.225Z,40.76
2022-08-31T12:07:35.039Z,40.60
2022-08-31T12:10:34.684Z,40.64
2022-08-31T12:13:18.889Z,40.60
2022-08-31T12:16:09.612Z,40.49
2022-08-31T12:18:38.608Z,40.49
2022-08-31T12:22:02.620Z,40.50
2022-08-31T12:24:49.249Z,40.26
2022-08-31T12:27:25.766Z,39.97
2022-08-31T12:29:53.810Z,39.68
2022-08-31T12:32:23.751Z,39.57
2022-08-31T12:35:14.047Z,39.57
2022-08-31T12:37:41.092Z,39.60
2022-08-31T12:40:15.393Z,39.57
2022-08-31T12:42:59.351Z,39.50
2022-08-31T12:45:54.137Z,39.58
2022-08-31T12:48:27.364Z,39.72
2022-08-31T12:51:00.365Z,39.88
2022-08-31T12:53:49.086Z,39.83
2022-08-31T12:56:48.730Z,39.69
2022-08-31T12:59:45.726Z,39.63
2022-08-31T13:02:16.706Z,39.62
2022-08-31T13:04:47.536Z,39.59
2022-08-31T13:07:29.748Z,39.49
2022-08-31T13:10:09.793Z,39.41
2022-08-31T13:12:37.047Z,39.38
2022-08-31T13:15:05.358Z,39.30
2022-08-31T13:17:37.905Z,39.20
2022-08-31T13:20:07.819Z,39.07
2022-08-31T13:22:40.312Z,38.85
2022-08-31T13:25:32.849Z,38.72
2022-08-31T13:27:59.995Z,38.63
2022-08-31T13:30:27.661Z,38.61
2022-08-31T13:32:55.044Z,38.57
2022-08-31T13:35:25.035Z,38.50
2022-08-31T13:38:06.421Z,38.41
2022-08-31T13:40:37.523Z,38.32
2022-08-31T13:43:09.399Z,38.27
2022-08-31T13:45:40.779Z,38.23
2022-08-31T13:48:13.433Z,38.18
2022-08-31T13:50:52.502Z,38.12
2022-08-31T13:53:43.024Z,38.03
2022-08-31T13:56:42.813Z,37.84
2022-08-31T13:59:26.965Z,37.62
2022-08-31T14:01:54.321Z,37.43
2022-08-31T14:04:48.989Z,37.24
2022-08-31T14:07:44.124Z,37.06
2022-08-31T14:10:20.289Z,36.98
2022-08-31T14:13:21.222Z,36.82
2022-08-31T14:15:56.345Z,36.57
2022-08-31T14:18:28.689Z,36.32
2022-08-31T14:21:26.644Z,36.10
2022-08-31T14:24:05.073Z,35.87
2022-08-31T14:26:41.826Z,35.70
2022-08-31T14:29:12.212Z,35.57
2022-08-31T14:31:53.673Z,35.43
2022-08-31T14:34:35.118Z,35.27
2022-08-31T14:37:06.463Z,35.13
2022-08-31T14:39:37.443Z,35.00
2022-08-31T14:42:07.282Z,34.87
2022-08-31T14:44:41.661Z,34.75
2022-08-31T14:47:09.938Z,34.60
2022-08-31T14:49:38.098Z,34.51
2022-08-31T14:52:06.703Z,34.46
2022-08-31T14:54:37.331Z,34.38
2022-08-31T14:57:16.128Z,34.22
2022-08-31T14:59:44.320Z,34.01
2022-08-31T15:02:12.992Z,33.81
2022-08-31T15:04:45.543Z,33.67
2022-08-31T15:07:13.427Z,33.52
2022-08-31T15:09:42.674Z,33.37
2022-08-31T15:12:14.746Z,33.25
2022-08-31T15:14:45.278Z,33.08
2022-08-31T15:17:19.228Z,32.93
2022-08-31T15:19:48.387Z,32.80
2022-08-31T15:22:17.552Z,32.67
2022-08-31T15:24:47.091Z,32.54
2022-08-31T15:27:15.786Z,32.43
2022-08-31T15:29:43.453Z,32.34
2022-08-31T15:32:10.564Z,32.24
2022-08-31T15:34:37.860Z,32.11
2022-08-31T15:37:06.344Z,31.96
2022-08-31T15:39:35.829Z,31.81
2022-08-31T15:42:09.156Z,31.69
2022-08-31T15:44:37.983Z,31.57
2022-08-31T15:47:25.060Z,31.46
2022-08-31T15:49:52.112Z,31.33
2022-08-31T15:52:19.260Z,31.23
2022-08-31T15:54:46.928Z,31.14
2022-08-31T15:57:16.235Z,31.06
2022-08-31T15:59:43.905Z,30.97
2022-08-31T16:02:13.101Z,30.87
2022-08-31T16:04:43.126Z,30.80
2022-08-31T16:07:11.612Z,30.73
2022-08-31T16:09:44.836Z,30.67
2022-08-31T16:12:16.235Z,30.60
2022-08-31T16:14:46.998Z,30.53
2022-08-31T16:17:20.184Z,30.44
2022-08-31T16:19:49.534Z,30.36
2022-08-31T16:22:19.087Z,30.28
2022-08-31T16:24:47.165Z,30.21
2022-08-31T16:27:16.431Z,30.16
2022-08-31T16:29:43.704Z,30.09
2022-08-31T16:32:10.795Z,30.02
2022-08-31T16:34:39.589Z,29.95
2022-08-31T16:37:07.954Z,29.89
2022-08-31T16:39:36.328Z,29.83
2022-08-31T16:42:06.357Z,29.77
2022-08-31T16:44:36.806Z,29.71
2022-08-31T16:47:05.321Z,29.63
2022-08-31T16:49:36.413Z,29.55
2022-08-31T16:52:06.850Z,29.49
2022-08-31T16:54:34.445Z,29.41
2022-08-31T16:57:01.432Z,29.34
2022-08-31T16:59:29.091Z,29.30
2022-08-31T17:01:57.402Z,29.25
2022-08-31T17:04:48.547Z,29.19
2022-08-31T17:07:14.080Z,29.15
2022-08-31T17:09:41.435Z,29.14
2022-08-31T17:12:13.408Z,29.12
2022-08-31T17:14:51.431Z,29.09
2022-08-31T17:17:20.699Z,29.06
2022-08-31T17:19:47.688Z,29.04
2022-08-31T17:22:23.258Z,28.99
2022-08-31T17:24:57.846Z,28.95
2022-08-31T17:27:25.799Z,28.89
2022-08-31T17:29:53.969Z,28.86
2022-08-31T17:32:23.938Z,28.82
2022-08-31T17:34:52.082Z,28.78
2022-08-31T17:37:27.935Z,28.72
2022-08-31T17:39:55.628Z,28.68
2022-08-31T17:42:23.697Z,28.62
2022-08-31T17:44:52.290Z,28.55
2022-08-31T17:47:20.624Z,28.48
2022-08-31T17:49:47.807Z,28.42
2022-08-31T17:52:14.756Z,28.36
2022-08-31T17:54:43.482Z,28.29
2022-08-31T17:57:13.146Z,28.23
2022-08-31T17:59:41.806Z,28.18
2022-08-31T18:02:13.239Z,28.12
2022-08-31T18:04:41.136Z,28.07
2022-08-31T18:07:09.349Z,28.03
2022-08-31T18:09:44.438Z,27.99
2022-08-31T18:12:11.811Z,27.94
2022-08-31T18:14:39.793Z,27.88
2022-08-31T18:17:08.762Z,27.82
2022-08-31T18:19:36.127Z,27.74
2022-08-31T18:22:04.098Z,27.68
2022-08-31T18:24:35.637Z,27.63
2022-08-31T18:27:07.446Z,27.57
2022-08-31T18:29:35.811Z,27.50
2022-08-31T18:32:04.359Z,27.43
2022-08-31T18:34:33.336Z,27.37
2022-08-31T18:37:00.757Z,27.31
2022-08-31T18:39:51.515Z,27.24
2022-08-31T18:42:38.348Z,27.20
2022-08-31T18:45:17.098Z,27.16
2022-08-31T18:48:01.580Z,27.12
2022-08-31T18:50:37.327Z,27.08
2022-08-31T18:53:10.802Z,27.02
2022-08-31T18:55:42.751Z,26.97
2022-08-31T18:58:10.418Z,26.93
2022-08-31T19:00:40.481Z,26.89
2022-08-31T19:03:07.745Z,26.86
2022-08-31T19:05:38.479Z,26.81
2022-08-31T19:08:05.490Z,26.77
2022-08-31T19:10:32.357Z,26.71
2022-08-31T19:13:01.504Z,26.64
2022-08-31T19:15:35.226Z,26.57
2022-08-31T19:18:05.639Z,26.51
2022-08-31T19:20:33.632Z,26.43
2022-08-31T19:23:01.048Z,26.39
2022-08-31T19:25:28.479Z,26.35
2022-08-31T19:27:56.345Z,26.32
2022-08-31T19:30:28.074Z,26.28
2022-08-31T19:32:56.698Z,26.25
2022-08-31T19:35:27.170Z,26.23
2022-08-31T19:37:55.570Z,26.20
2022-08-31T19:40:23.209Z,26.18
2022-08-31T19:45:43.210Z,26.12
2022-08-31T19:48:13.618Z,26.08
2022-08-31T19:50:42.361Z,26.04
2022-08-31T19:53:13.419Z,26.01
2022-08-31T19:55:50.255Z,25.97
2022-08-31T19:58:18.116Z,25.94
2022-08-31T20:00:45.268Z,25.90
2022-08-31T20:03:16.212Z,25.88
2022-08-31T20:05:43.704Z,25.87
2022-08-31T20:08:11.137Z,25.85
2022-08-31T20:10:42.395Z,25.84
2022-08-31T20:13:10.268Z,25.83
2022-08-31T20:15:41.221Z,25.80
2022-08-31T20:18:11.457Z,25.77
2022-08-31T20:20:45.353Z,25.74
2022-08-31T20:23:17.010Z,25.70
2022-08-31T20:25:45.086Z,25.66
2022-08-31T20:28:12.353Z,25.64
2022-08-31T20:30:40.838Z,25.62
2022-08-31T20:33:08.493Z,25.59
2022-08-31T20:35:36.526Z,25.53
2022-08-31T20:38:03.618Z,25.49
2022-08-31T20:40:30.615Z,25.44
2022-08-31T20:42:58.139Z,25.40
2022-08-31T20:45:25.293Z,25.38
2022-08-31T20:48:10.879Z,25.35
2022-08-31T20:50:40.281Z,25.31
2022-08-31T20:53:07.876Z,25.29
2022-08-31T20:55:36.434Z,25.23
2022-08-31T20:58:04.332Z,25.17
2022-08-31T21:00:32.824Z,25.12
2022-08-31T21:03:00.719Z,25.07
2022-08-31T21:05:39.062Z,25.02
2022-08-31T21:08:06.340Z,24.98
2022-08-31T21:10:37.230Z,24.96
2022-08-31T21:13:07.200Z,24.93
2022-08-31T21:15:34.253Z,24.89
2022-08-31T21:18:01.711Z,24.89
2022-08-31T21:20:29.073Z,24.87
2022-08-31T21:22:55.946Z,24.82
2022-08-31T21:25:23.378Z,24.78
2022-08-31T21:27:50.329Z,24.76
2022-08-31T21:30:18.953Z,24.74
2022-08-31T21:32:47.096Z,24.71
2022-08-31T21:35:17.014Z,24.66
2022-08-31T21:37:44.170Z,24.62
2022-08-31T21:40:12.278Z,24.59
2022-08-31T21:42:40.115Z,24.56
2022-08-31T21:45:07.890Z,24.53
2022-08-31T21:47:34.830Z,24.48
2022-08-31T21:50:01.832Z,24.44
2022-08-31T21:52:29.090Z,24.42
2022-08-31T21:54:56.604Z,24.39
2022-08-31T21:57:25.086Z,24.35
2022-08-31T21:59:52.032Z,24.32
2022-08-31T22:02:20.035Z,24.28
2022-08-31T22:04:47.258Z,24.23
2022-08-31T22:07:14.959Z,24.20
2022-08-31T22:09:43.472Z,24.18
2022-08-31T22:12:15.207Z,24.16
2022-08-31T22:14:44.892Z,24.13
2022-08-31T22:17:13.272Z,24.10
2022-08-31T22:19:41.452Z,24.06
2022-08-31T22:22:11.988Z,24.02
2022-08-31T22:24:40.218Z,24.00
2022-08-31T22:27:08.579Z,23.98
2022-08-31T22:29:36.617Z,23.95
2022-08-31T22:32:08.776Z,23.90
2022-08-31T22:34:37.294Z,23.85
2022-08-31T22:37:04.754Z,23.82
2022-08-31T22:39:31.803Z,23.80
2022-08-31T22:41:59.167Z,23.77
2022-08-31T22:44:27.885Z,23.74
2022-08-31T22:46:57.276Z,23.75
2022-08-31T22:49:25.133Z,23.74
2022-08-31T22:51:52.287Z,23.74
2022-08-31T22:54:19.542Z,23.72
2022-08-31T22:56:47.108Z,23.69
2022-08-31T22:59:17.816Z,23.67
2022-08-31T23:01:47.677Z,23.66
2022-08-31T23:04:20.429Z,23.61
2022-08-31T23:06:49.484Z,23.58
2022-08-31T23:09:16.711Z,23.57
2022-08-31T23:11:43.659Z,23.56
2022-08-31T23:14:10.709Z,23.55
2022-08-31T23:16:40.401Z,23.54
2022-08-31T23:19:19.390Z,23.51
2022-08-31T23:21:52.554Z,23.49
2022-08-31T23:24:23.831Z,23.44
2022-08-31T23:26:53.315Z,23.43
2022-08-31T23:29:22.010Z,23.39
2022-08-31T23:31:49.063Z,23.34
2022-08-31T23:34:16.528Z,23.28
2022-08-31T23:36:47.783Z,23.23
2022-08-31T23:39:19.035Z,23.18
2022-08-31T23:41:47.314Z,23.13
2022-08-31T23:44:15.081Z,23.09
2022-08-31T23:46:43.454Z,23.08
2022-08-31T23:49:11.544Z,23.07
2022-08-31T23:51:38.597Z,23.05
2022-08-31T23:54:08.224Z,23.03
2022-08-31T23:56:37.440Z,23.00
2022-08-31T23:59:09.579Z,22.98
